Time;durP1;ratioP1;P1;durP2;ratioP2;P2;SDS_P1;SDS_P2;PMS_P1;PMS_P2;Temp;Humidity;BMP_temperature;BMP_pressure;BME280_temperature;BME280_humidity;BME280_pressure;Samples;Min_cycle;Max_cycle;Signal;HPM_P1;HPM_P2
2021/06/20 00:00:24;;;;;;;7.13;5.43;;;23.80;77.40;;;;;;5100867;28;20027;-73
2021/06/20 00:02:51;;;;;;;8.68;6.78;;;23.70;77.20;;;;;;5099666;28;20028;-73
2021/06/20 00:05:20;;;;;;;7.00;5.93;;;23.70;77.60;;;;;;5098918;28;20035;-73
2021/06/20 00:07:46;;;;;;;7.15;5.35;;;23.70;77.30;;;;;;5100462;28;20447;-73
2021/06/20 00:10:16;;;;;;;6.47;5.60;;;23.70;77.30;;;;;;5103384;28;20028;-73
2021/06/20 00:12:42;;;;;;;9.35;6.35;;;23.70;77.50;;;;;;5102149;28;20032;-73
2021/06/20 00:15:11;;;;;;;6.10;5.50;;;23.70;77.50;;;;;;5102317;28;20076;-73
2021/06/20 00:17:37;;;;;;;8.48;6.85;;;23.70;77.40;;;;;;5098954;28;20481;-73
2021/06/20 00:20:09;;;;;;;6.93;6.22;;;23.70;77.60;;;;;;5102562;28;20102;-73
2021/06/20 00:22:35;;;;;;;7.50;6.80;;;23.60;77.70;;;;;;5100146;28;20040;-73
2021/06/20 00:25:03;;;;;;;8.35;5.63;;;23.60;77.90;;;;;;5101172;28;20712;-73
2021/06/20 00:27:29;;;;;;;6.72;5.68;;;23.60;77.90;;;;;;5101858;28;20441;-73
2021/06/20 00:29:55;;;;;;;9.70;6.20;;;23.60;77.60;;;;;;5084874;28;20074;-73
2021/06/20 00:32:21;;;;;;;7.43;5.82;;;23.60;78.00;;;;;;5097517;28;20061;-73
2021/06/20 00:34:46;;;;;;;9.05;6.40;;;23.60;78.00;;;;;;5083335;28;20058;-73
2021/06/20 00:37:12;;;;;;;8.63;6.45;;;23.60;78.20;;;;;;5081699;28;20036;-73
2021/06/20 00:39:38;;;;;;;7.05;5.65;;;23.50;78.10;;;;;;5102756;28;20023;-73
2021/06/20 00:42:04;;;;;;;8.80;6.70;;;23.50;78.10;;;;;;5102062;28;20032;-72
2021/06/20 00:44:29;;;;;;;7.72;6.07;;;23.40;78.30;;;;;;5100855;28;20206;-73
2021/06/20 00:46:55;;;;;;;7.00;5.97;;;23.40;78.50;;;;;;5101919;28;20031;-73
2021/06/20 00:49:21;;;;;;;7.50;6.20;;;23.30;78.40;;;;;;5098432;28;20035;-73
2021/06/20 00:51:47;;;;;;;7.80;6.07;;;23.30;78.60;;;;;;5080668;28;20427;-73
2021/06/20 00:54:13;;;;;;;9.00;6.45;;;23.20;78.50;;;;;;5100923;28;20530;-73
2021/06/20 00:56:39;;;;;;;8.40;6.00;;;23.20;78.60;;;;;;5098775;28;20028;-72
2021/06/20 00:59:05;;;;;;;9.38;6.13;;;23.20;78.60;;;;;;5102410;28;20103;-73
2021/06/20 01:01:32;;;;;;;6.47;5.85;;;23.20;78.50;;;;;;5098660;28;20315;-73
2021/06/20 01:03:59;;;;;;;8.40;6.25;;;23.20;78.60;;;;;;5101170;28;20503;-73
2021/06/20 01:06:26;;;;;;;7.05;6.15;;;23.20;78.60;;;;;;5100665;28;20032;-72
2021/06/20 01:08:52;;;;;;;7.22;6.50;;;23.20;78.90;;;;;;5094847;28;20034;-73
2021/06/20 01:11:18;;;;;;;8.35;6.13;;;23.20;78.90;;;;;;5100695;28;20051;-72
2021/06/20 01:13:45;;;;;;;6.90;5.47;;;23.20;78.70;;;;;;5099422;28;20542;-73
2021/06/20 01:16:11;;;;;;;7.72;6.07;;;23.20;78.50;;;;;;5105315;28;20106;-73
2021/06/20 01:18:38;;;;;;;7.78;6.65;;;23.20;78.40;;;;;;5101551;28;20114;-73
2021/06/20 01:21:04;;;;;;;7.85;6.28;;;23.20;78.60;;;;;;5100697;28;20055;-73
2021/06/20 01:23:30;;;;;;;10.13;8.05;;;23.20;78.80;;;;;;5096770;28;20310;-73
2021/06/20 01:25:56;;;;;;;10.40;6.25;;;23.10;79.10;;;;;;5080986;28;20039;-73
2021/06/20 01:28:27;;;;;;;8.20;6.70;;;23.10;78.80;;;;;;5097685;28;20042;-73
2021/06/20 01:30:57;;;;;;;;;;;23.10;79.30;;;;;;5100418;28;20085;-73
2021/06/20 01:33:23;;;;;;;11.73;7.68;;;23.10;79.20;;;;;;5099122;28;19955;-73
2021/06/20 01:35:49;;;;;;;7.07;6.38;;;23.10;79.60;;;;;;5101568;28;20055;-72
2021/06/20 01:38:15;;;;;;;8.25;5.90;;;23.10;79.20;;;;;;5081254;28;20072;-73
2021/06/20 01:40:41;;;;;;;7.22;5.97;;;23.10;79.00;;;;;;5100099;28;20050;-73
2021/06/20 01:43:07;;;;;;;7.35;6.47;;;23.10;79.20;;;;;;5100267;28;20063;-74
2021/06/20 01:45:33;;;;;;;8.32;6.85;;;23.10;79.00;;;;;;5099094;28;20362;-73
2021/06/20 01:47:59;;;;;;;7.07;6.03;;;23.00;79.30;;;;;;5100235;28;20031;-72
2021/06/20 01:50:27;;;;;;;8.55;6.55;;;23.10;79.40;;;;;;5102193;28;20508;-73
2021/06/20 01:53:04;;;;;;;7.07;6.07;;;23.10;79.20;;;;;;5102131;28;20043;-73
2021/06/20 01:55:31;;;;;;;8.65;6.72;;;23.00;79.50;;;;;;5097154;28;20024;-73
2021/06/20 01:57:57;;;;;;;8.98;6.35;;;23.00;79.40;;;;;;5101246;28;20028;-73
2021/06/20 02:00:25;;;;;;;10.15;7.00;;;23.00;79.50;;;;;;5095429;28;20040;-73
2021/06/20 02:02:51;;;;;;;8.00;7.13;;;23.00;79.80;;;;;;5101175;28;20487;-73
2021/06/20 02:05:16;;;;;;;8.07;7.28;;;22.90;80.20;;;;;;5099970;28;20069;-73
2021/06/20 02:07:42;;;;;;;8.50;6.68;;;22.90;80.00;;;;;;5098277;28;20071;-73
2021/06/20 02:10:10;;;;;;;7.05;6.35;;;22.90;79.80;;;;;;5100031;28;20038;-73
2021/06/20 02:12:37;;;;;;;7.78;6.25;;;22.90;80.00;;;;;;5095613;28;20052;-73
2021/06/20 02:15:08;;;;;;;8.38;6.18;;;22.90;80.00;;;;;;5096819;28;20036;-73
2021/06/20 02:17:34;;;;;;;8.60;7.15;;;22.90;79.90;;;;;;5080707;28;20024;-73
2021/06/20 02:20:05;;;;;;;9.60;7.07;;;22.90;80.20;;;;;;5098604;28;20504;-73
2021/06/20 02:22:32;;;;;;;9.02;7.18;;;22.90;80.70;;;;;;5098633;28;20153;-73
2021/06/20 02:24:58;;;;;;;11.77;7.55;;;22.90;80.10;;;;;;5101033;28;20467;-73
2021/06/20 02:27:24;;;;;;;8.27;6.60;;;22.90;80.30;;;;;;5097604;28;20032;-74
2021/06/20 02:29:52;;;;;;;10.90;6.75;;;22.90;80.30;;;;;;5100296;28;20046;-73
2021/06/20 02:32:18;;;;;;;9.23;7.10;;;22.90;80.40;;;;;;5099775;28;20027;-74
2021/06/20 02:34:46;;;;;;;11.40;8.50;;;22.90;80.60;;;;;;5098490;28;20097;-72
2021/06/20 02:37:16;;;;;;;8.82;7.88;;;22.80;81.00;;;;;;5099808;28;20059;-73
2021/06/20 02:39:42;;;;;;;11.23;8.07;;;22.80;81.20;;;;;;5101222;28;20024;-73
2021/06/20 02:42:09;;;;;;;9.52;7.43;;;22.70;81.40;;;;;;5083134;28;20513;-73
2021/06/20 02:44:36;;;;;;;8.95;7.25;;;22.70;81.50;;;;;;5097548;28;20118;-73
2021/06/20 02:47:03;;;;;;;8.30;7.15;;;22.70;81.30;;;;;;5079406;28;20490;-73
2021/06/20 02:49:30;;;;;;;9.40;8.43;;;22.70;81.40;;;;;;5080654;28;20110;-73
2021/06/20 02:51:56;;;;;;;10.35;7.43;;;22.70;81.60;;;;;;5082934;28;20028;-73
2021/06/20 02:54:22;;;;;;;9.57;8.38;;;22.70;81.80;;;;;;5065040;28;20078;-73
2021/06/20 02:56:48;;;;;;;9.77;8.40;;;22.70;81.70;;;;;;5083832;28;20024;-73
2021/06/20 02:59:14;;;;;;;10.50;7.70;;;22.70;81.90;;;;;;5080019;28;20060;-73
2021/06/20 03:01:41;;;;;;;8.10;7.28;;;22.70;81.90;;;;;;5080066;28;20151;-73
2021/06/20 03:04:07;;;;;;;10.07;7.93;;;22.70;81.90;;;;;;5082545;28;20029;-73
2021/06/20 03:06:32;;;;;;;9.02;7.13;;;22.70;82.10;;;;;;5083366;28;20390;-73
2021/06/20 03:08:58;;;;;;;9.70;7.90;;;22.70;81.70;;;;;;5079598;28;20060;-73
2021/06/20 03:11:25;;;;;;;10.35;8.43;;;22.70;82.00;;;;;;5080588;28;20028;-73
2021/06/20 03:13:51;;;;;;;9.00;7.47;;;22.70;82.30;;;;;;5081768;28;20382;-73
2021/06/20 03:16:19;;;;;;;10.95;8.60;;;22.70;82.20;;;;;;5082250;28;20398;-73
2021/06/20 03:18:46;;;;;;;13.02;9.45;;;22.70;82.60;;;;;;5081633;28;20032;-73
2021/06/20 03:21:12;;;;;;;14.93;8.52;;;22.60;83.00;;;;;;5054852;28;20063;-73
2021/06/20 03:23:38;;;;;;;14.30;9.57;;;22.60;83.00;;;;;;5083596;28;20509;-73
2021/06/20 03:26:04;;;;;;;10.63;9.52;;;22.50;83.10;;;;;;5079638;28;20028;-73
2021/06/20 03:28:30;;;;;;;9.73;8.60;;;22.60;83.40;;;;;;5082649;28;20016;-73
2021/06/20 03:30:55;;;;;;;11.25;8.32;;;22.50;83.50;;;;;;5066568;28;20382;-73
2021/06/20 03:33:21;;;;;;;12.18;8.65;;;22.50;84.00;;;;;;5083019;28;20103;-73
2021/06/20 03:35:47;;;;;;;11.52;9.20;;;22.60;83.80;;;;;;5082625;28;20032;-73
2021/06/20 03:38:13;;;;;;;9.25;8.15;;;22.60;83.60;;;;;;5082539;28;20035;-73
2021/06/20 03:40:38;;;;;;;10.75;9.65;;;22.60;83.50;;;;;;5083467;28;20036;-73
2021/06/20 03:43:04;;;;;;;9.52;8.63;;;22.50;83.90;;;;;;5063228;28;20110;-73
2021/06/20 03:45:30;;;;;;;12.13;8.30;;;22.50;83.80;;;;;;5081186;28;20024;-73
2021/06/20 03:47:55;;;;;;;12.27;10.10;;;22.50;84.00;;;;;;5082576;28;20029;-73
2021/06/20 03:50:21;;;;;;;13.90;10.23;;;22.50;84.10;;;;;;5083971;28;20262;-73
2021/06/20 03:52:47;;;;;;;11.38;8.80;;;22.40;84.70;;;;;;5081257;28;20028;-73
2021/06/20 03:55:13;;;;;;;10.77;8.90;;;22.40;84.40;;;;;;5081619;28;20044;-73
2021/06/20 03:57:39;;;;;;;11.30;8.90;;;22.40;84.50;;;;;;5079316;28;20032;-72
2021/06/20 04:00:07;;;;;;;9.85;8.43;;;22.40;84.70;;;;;;5060710;28;20405;-73
2021/06/20 04:02:33;;;;;;;9.85;8.85;;;22.50;84.50;;;;;;5061929;28;20064;-73
2021/06/20 04:04:59;;;;;;;11.38;9.45;;;22.50;84.80;;;;;;5081723;28;20064;-73
2021/06/20 04:07:25;;;;;;;9.82;8.82;;;22.50;85.00;;;;;;5082810;28;20028;-73
2021/06/20 04:09:50;;;;;;;10.48;8.85;;;22.50;84.80;;;;;;5083094;28;20082;-73
2021/06/20 04:12:16;;;;;;;8.73;6.88;;;22.50;85.50;;;;;;5080860;28;20124;-73
2021/06/20 04:14:42;;;;;;;11.02;8.40;;;22.60;84.70;;;;;;5078325;28;20103;-73
2021/06/20 04:17:08;;;;;;;12.95;8.88;;;22.60;84.90;;;;;;5078789;28;20054;-73
2021/06/20 04:19:34;;;;;;;11.43;9.75;;;22.70;84.70;;;;;;5082742;28;20036;-73
2021/06/20 04:22:01;;;;;;;11.57;10.30;;;22.70;84.90;;;;;;5077768;28;20038;-73
2021/06/20 04:24:27;;;;;;;11.52;10.43;;;22.70;85.90;;;;;;5078525;28;20032;-73
2021/06/20 04:26:53;;;;;;;17.73;11.15;;;22.60;86.20;;;;;;5084443;28;20028;-73
2021/06/20 04:29:19;;;;;;;13.00;11.30;;;22.60;87.10;;;;;;5079663;28;20025;-73
2021/06/20 04:31:45;;;;;;;15.85;11.70;;;22.60;87.00;;;;;;5081269;28;20401;-73
2021/06/20 04:34:11;;;;;;;14.27;11.10;;;22.70;88.10;;;;;;5079712;28;20035;-73
2021/06/20 04:36:37;;;;;;;18.20;13.55;;;22.60;88.20;;;;;;5081901;28;20482;-73
2021/06/20 04:39:07;;;;;;;17.30;12.90;;;22.60;90.30;;;;;;5078250;28;20039;-73
2021/06/20 04:41:34;;;;;;;17.35;12.65;;;22.60;90.10;;;;;;5078464;28;20033;-73
2021/06/20 04:44:02;;;;;;;16.42;13.05;;;22.50;90.30;;;;;;5081916;28;20032;-73
2021/06/20 04:46:36;;;;;;;13.68;11.80;;;22.40;90.70;;;;;;5076273;28;20467;-73
2021/06/20 04:49:07;;;;;;;18.08;10.38;;;22.40;90.60;;;;;;5062765;28;20095;-73
2021/06/20 04:51:38;;;;;;;17.15;9.85;;;22.30;91.30;;;;;;5080017;28;20486;-73
2021/06/20 04:54:04;;;;;;;15.30;11.52;;;22.20;91.00;;;;;;5082162;28;20140;-73
2021/06/20 04:56:31;;;;;;;16.00;11.15;;;22.20;92.20;;;;;;5085325;28;20039;-72
2021/06/20 04:58:57;;;;;;;13.30;10.20;;;22.10;92.90;;;;;;5080698;28;20029;-73
2021/06/20 05:01:24;;;;;;;21.98;12.18;;;22.00;93.40;;;;;;5075542;28;20039;-73
2021/06/20 05:03:49;;;;;;;15.63;11.65;;;21.90;93.60;;;;;;5076692;28;20024;-73
2021/06/20 05:06:16;;;;;;;15.32;10.40;;;21.80;94.20;;;;;;5079353;28;20043;-73
2021/06/20 05:08:42;;;;;;;17.30;12.43;;;21.70;94.70;;;;;;5080636;28;20052;-73
2021/06/20 05:11:07;;;;;;;14.13;9.85;;;21.60;96.20;;;;;;5079735;28;20028;-73
2021/06/20 05:13:34;;;;;;;14.57;8.27;;;21.40;95.60;;;;;;5081560;28;20024;-72
2021/06/20 05:15:59;;;;;;;17.05;9.27;;;21.30;95.70;;;;;;5079913;28;20029;-72
2021/06/20 05:18:25;;;;;;;13.80;8.10;;;21.20;96.10;;;;;;5080242;28;20085;-73
2021/06/20 05:20:51;;;;;;;15.73;7.95;;;21.10;96.30;;;;;;5078555;28;20039;-73
2021/06/20 05:23:18;;;;;;;11.32;8.68;;;21.00;96.60;;;;;;5077940;28;20024;-73
2021/06/20 05:25:44;;;;;;;13.60;8.98;;;20.90;97.20;;;;;;5079571;28;20086;-73
2021/06/20 05:28:10;;;;;;;11.95;9.32;;;20.90;97.40;;;;;;5062650;28;20028;-72
2021/06/20 05:30:35;;;;;;;12.82;8.52;;;20.90;98.30;;;;;;5080657;28;20035;-73
2021/06/20 05:33:01;;;;;;;13.35;7.90;;;20.90;98.50;;;;;;5080646;28;20056;-73
2021/06/20 05:35:27;;;;;;;16.63;7.63;;;20.80;98.70;;;;;;5080132;28;20502;-73
2021/06/20 05:37:53;;;;;;;9.82;5.65;;;20.80;99.30;;;;;;5078849;28;20031;-73
2021/06/20 05:40:19;;;;;;;8.88;5.80;;;20.80;99.00;;;;;;5063028;28;20024;-73
2021/06/20 05:42:44;;;;;;;7.05;5.57;;;20.70;99.50;;;;;;5080286;28;20110;-74
2021/06/20 05:45:11;;;;;;;9.85;5.53;;;20.60;99.90;;;;;;5080675;28;20017;-73
2021/06/20 05:47:36;;;;;;;8.90;5.90;;;20.60;99.90;;;;;;5081819;28;20028;-73
2021/06/20 05:50:02;;;;;;;11.88;5.90;;;20.60;99.90;;;;;;5079078;28;20028;-73
2021/06/20 05:52:28;;;;;;;8.20;5.50;;;20.50;99.90;;;;;;5060470;28;20058;-73
2021/06/20 05:54:54;;;;;;;13.82;6.38;;;20.40;99.90;;;;;;5077800;28;20683;-73
2021/06/20 05:57:21;;;;;;;9.00;4.90;;;20.40;99.90;;;;;;5078444;28;20385;-73
2021/06/20 05:59:48;;;;;;;10.38;5.03;;;20.30;99.90;;;;;;5078721;28;20165;-72
2021/06/20 06:02:14;;;;;;;8.65;4.28;;;20.30;99.90;;;;;;5062076;28;20028;-72
2021/06/20 06:04:41;;;;;;;9.23;4.10;;;20.20;99.90;;;;;;5080773;28;20505;-73
2021/06/20 06:07:08;;;;;;;7.05;4.43;;;20.10;99.90;;;;;;5080424;28;20036;-73
2021/06/20 06:09:35;;;;;;;9.73;5.10;;;20.10;99.90;;;;;;5078247;28;20061;-73
2021/06/20 06:12:02;;;;;;;8.23;4.28;;;20.20;99.90;;;;;;5079515;28;20032;-72
2021/06/20 06:14:27;;;;;;;6.10;4.30;;;20.20;99.90;;;;;;5080979;28;20032;-73
2021/06/20 06:16:53;;;;;;;7.07;4.32;;;20.20;99.90;;;;;;5080532;28;20024;-73
2021/06/20 06:19:19;;;;;;;8.35;4.75;;;20.20;99.90;;;;;;5081338;28;20024;-73
2021/06/20 06:21:45;;;;;;;8.82;4.75;;;20.20;99.90;;;;;;5080949;28;20401;-73
2021/06/20 06:24:11;;;;;;;12.00;4.65;;;20.20;99.90;;;;;;5080476;28;20025;-73
2021/06/20 06:26:37;;;;;;;8.07;4.32;;;20.20;99.90;;;;;;5082848;28;20078;-73
2021/06/20 06:29:04;;;;;;;10.82;4.45;;;20.20;99.90;;;;;;5081785;28;20436;-73
2021/06/20 06:31:31;;;;;;;11.32;4.70;;;20.20;99.90;;;;;;5065783;28;20025;-73
2021/06/20 06:33:57;;;;;;;9.60;5.05;;;20.20;99.90;;;;;;5082914;28;20055;-73
2021/06/20 06:36:23;;;;;;;7.60;4.47;;;20.30;99.90;;;;;;5064922;28;20411;-73
2021/06/20 06:38:49;;;;;;;14.38;5.13;;;20.20;99.90;;;;;;5081276;28;20044;-72
2021/06/20 06:41:18;;;;;;;7.88;4.45;;;20.20;99.90;;;;;;5083643;28;20042;-73
2021/06/20 06:43:47;;;;;;;10.52;4.88;;;20.20;99.90;;;;;;5082873;28;20028;-73
2021/06/20 06:46:13;;;;;;;11.85;4.97;;;20.30;99.90;;;;;;5066380;28;20107;-73
2021/06/20 06:48:39;;;;;;;10.85;5.28;;;20.40;99.90;;;;;;5083304;28;20426;-73
2021/06/20 06:51:05;;;;;;;9.93;4.43;;;20.40;99.90;;;;;;5083297;28;20036;-73
2021/06/20 06:53:31;;;;;;;10.05;4.60;;;20.60;99.90;;;;;;5065893;28;20068;-73
2021/06/20 06:55:57;;;;;;;8.75;4.80;;;20.70;99.90;;;;;;5080761;28;20520;-73
2021/06/20 06:58:23;;;;;;;8.05;4.03;;;20.80;99.90;;;;;;5082288;28;20032;-73
2021/06/20 07:00:49;;;;;;;7.97;4.25;;;21.00;99.90;;;;;;5082459;28;20024;-73
2021/06/20 07:03:15;;;;;;;6.28;4.32;;;21.10;99.90;;;;;;5083429;28;20020;-74
2021/06/20 07:05:40;;;;;;;11.13;4.28;;;21.10;99.90;;;;;;5082178;28;20099;-74
2021/06/20 07:08:06;;;;;;;11.45;4.57;;;21.20;99.90;;;;;;5082512;28;20036;-73
2021/06/20 07:10:33;;;;;;;8.77;4.45;;;21.30;99.90;;;;;;5078864;28;20024;-73
2021/06/20 07:12:59;;;;;;;10.82;4.65;;;21.40;99.90;;;;;;5076237;28;20039;-73
2021/06/20 07:15:25;;;;;;;7.93;4.30;;;21.40;99.50;;;;;;5063962;28;20028;-73
2021/06/20 07:17:52;;;;;;;10.30;4.03;;;21.40;99.90;;;;;;5082434;28;20561;-74
2021/06/20 07:20:18;;;;;;;11.27;3.90;;;21.50;99.70;;;;;;5083366;28;20470;-74
2021/06/20 07:22:45;;;;;;;9.95;4.45;;;21.50;99.10;;;;;;5081278;28;20371;-73
2021/06/20 07:25:13;;;;;;;10.52;4.35;;;21.50;99.50;;;;;;5081717;28;20474;-74
2021/06/20 07:27:39;;;;;;;9.93;4.20;;;21.60;98.40;;;;;;5082291;28;20025;-74
2021/06/20 07:30:14;;;;;;;8.25;4.18;;;21.50;99.20;;;;;;5081370;28;20394;-73
2021/06/20 07:32:42;;;;;;;10.88;4.60;;;21.50;99.50;;;;;;5082176;28;20020;-74
2021/06/20 07:35:09;;;;;;;12.13;4.20;;;21.60;98.10;;;;;;5083592;28;20107;-73
2021/06/20 07:37:36;;;;;;;11.32;4.53;;;21.60;97.70;;;;;;5070710;28;20056;-73
2021/06/20 07:40:04;;;;;;;10.35;4.32;;;21.60;97.70;;;;;;5081423;28;20036;-73
2021/06/20 07:42:30;;;;;;;9.85;4.43;;;21.60;97.90;;;;;;5082464;28;20441;-73
2021/06/20 07:44:55;;;;;;;10.75;4.70;;;21.70;96.80;;;;;;5081243;28;20103;-73
2021/06/20 07:47:21;;;;;;;12.60;5.03;;;21.80;97.40;;;;;;5066370;28;20021;-73
2021/06/20 07:49:47;;;;;;;15.95;5.07;;;21.70;97.30;;;;;;5081104;28;20028;-73
2021/06/20 07:52:13;;;;;;;10.85;4.40;;;21.90;97.20;;;;;;5083343;28;20072;-74
2021/06/20 07:54:42;;;;;;;13.13;4.55;;;21.90;96.80;;;;;;5078254;28;20028;-73
2021/06/20 07:57:08;;;;;;;12.00;4.57;;;21.90;96.30;;;;;;5081042;28;20259;-73
2021/06/20 07:59:34;;;;;;;13.27;4.85;;;22.00;96.00;;;;;;5064027;28;20055;-73
2021/06/20 08:02:00;;;;;;;8.13;4.07;;;22.10;95.20;;;;;;5082382;28;20020;-73
2021/06/20 08:04:26;;;;;;;12.45;4.53;;;22.30;95.10;;;;;;5082400;28;20498;-73
2021/06/20 08:06:51;;;;;;;10.73;4.63;;;22.30;94.20;;;;;;5064506;28;20266;-73
2021/06/20 08:09:18;;;;;;;10.85;4.43;;;22.40;95.00;;;;;;5063358;28;20048;-73
2021/06/20 08:11:44;;;;;;;11.05;4.43;;;22.40;94.50;;;;;;5081543;28;20038;-74
2021/06/20 08:14:10;;;;;;;10.70;3.80;;;22.50;94.10;;;;;;5080676;28;20115;-73
2021/06/20 08:16:35;;;;;;;8.85;4.55;;;22.60;94.10;;;;;;5064105;28;20033;-73
2021/06/20 08:19:01;;;;;;;10.98;4.45;;;22.60;94.60;;;;;;5079820;28;20027;-73
2021/06/20 08:21:27;;;;;;;9.57;4.20;;;22.70;94.20;;;;;;5082879;28;20085;-74
2021/06/20 08:23:53;;;;;;;10.68;4.45;;;22.80;93.80;;;;;;5080509;28;20024;-74
2021/06/20 08:26:19;;;;;;;10.93;4.30;;;22.90;93.80;;;;;;5078797;28;20032;-74
2021/06/20 08:28:45;;;;;;;10.88;4.93;;;23.00;94.10;;;;;;5079910;28;20037;-74
2021/06/20 08:31:11;;;;;;;7.75;5.03;;;23.00;94.30;;;;;;5080919;28;20039;-73
2021/06/20 08:33:37;;;;;;;9.07;4.68;;;23.00;93.90;;;;;;5079261;28;20035;-73
2021/06/20 08:36:03;;;;;;;8.05;4.38;;;23.00;93.70;;;;;;5081911;28;20486;-73
2021/06/20 08:38:29;;;;;;;9.82;4.25;;;23.00;93.90;;;;;;5079721;28;20538;-74
2021/06/20 08:40:56;;;;;;;8.80;3.95;;;23.00;94.00;;;;;;5061370;28;20351;-73
2021/06/20 08:43:23;;;;;;;8.80;4.57;;;23.00;93.60;;;;;;5044617;28;20436;-73
2021/06/20 08:45:54;;;;;;;8.23;4.80;;;23.00;93.90;;;;;;5072931;28;20021;-73
2021/06/20 08:48:20;;;;;;;11.18;5.38;;;23.00;93.80;;;;;;5074828;28;20486;-73
2021/06/20 08:50:49;;;;;;;8.63;4.63;;;23.10;92.60;;;;;;5078239;28;20025;-74
2021/06/20 08:53:20;;;;;;;6.53;4.68;;;23.10;92.90;;;;;;5080160;28;20043;-73
2021/06/20 08:55:47;;;;;;;8.93;3.92;;;23.10;92.90;;;;;;5076162;28;20028;-73
2021/06/20 08:58:29;;;;;;;10.15;3.88;;;23.20;92.30;;;;;;5077353;28;20033;-73
2021/06/20 09:00:56;;;;;;;10.43;4.15;;;23.20;92.70;;;;;;5081331;28;20020;-74
2021/06/20 09:03:23;;;;;;;8.88;3.83;;;23.20;92.30;;;;;;5064109;28;20023;-74
2021/06/20 09:06:00;;;;;;;8.57;4.07;;;23.30;92.40;;;;;;5079612;28;20040;-75
2021/06/20 09:08:28;;;;;;;9.52;4.00;;;23.40;91.90;;;;;;5060940;28;20036;-73
2021/06/20 09:10:58;;;;;;;9.35;4.63;;;23.40;91.90;;;;;;5059904;28;20024;-73
2021/06/20 09:13:33;;;;;;;10.53;4.73;;;23.50;90.90;;;;;;5083689;28;20115;-73
2021/06/20 09:16:04;;;;;;;19.83;11.80;;;23.50;91.50;;;;;;5083011;28;20289;-73
2021/06/20 09:18:30;;;;;;;11.93;5.35;;;23.40;90.30;;;;;;5074107;28;20046;-73
2021/06/20 09:20:57;;;;;;;14.38;5.68;;;23.40;90.40;;;;;;5081168;28;20024;-73
2021/06/20 09:23:22;;;;;;;13.88;6.78;;;23.40;90.90;;;;;;5079169;28;20134;-73
2021/06/20 09:26:00;;;;;;;12.15;5.18;;;23.30;90.70;;;;;;5081467;28;20107;-73
2021/06/20 09:28:38;;;;;;;11.45;5.85;;;23.20;91.10;;;;;;5075872;28;20514;-73
2021/06/20 09:31:06;;;;;;;7.88;4.90;;;23.30;91.20;;;;;;5060291;28;20032;-73
2021/06/20 09:33:35;;;;;;;11.18;5.40;;;23.30;91.30;;;;;;5079751;28;20021;-73
2021/06/20 09:36:01;;;;;;;10.15;5.18;;;23.30;91.10;;;;;;5060184;28;20033;-73
2021/06/20 09:38:28;;;;;;;7.53;5.10;;;23.20;90.90;;;;;;5079466;28;20077;-73
2021/06/20 09:41:08;;;;;;;9.77;5.68;;;23.30;90.80;;;;;;5063302;28;20028;-72
2021/06/20 09:43:36;;;;;;;8.95;6.45;;;23.30;90.80;;;;;;5080576;28;20141;-72
2021/06/20 09:46:03;;;;;;;11.20;5.97;;;23.30;90.70;;;;;;5080765;28;20074;-73
2021/06/20 09:48:30;;;;;;;8.40;5.72;;;23.30;90.40;;;;;;5077416;28;20283;-73
2021/06/20 09:51:01;;;;;;;9.68;5.32;;;23.30;90.60;;;;;;5075958;28;22156;-73
2021/06/20 09:53:33;;;;;;;;;;;23.40;90.60;;;;;;5077466;28;20036;-72
2021/06/20 09:56:17;;;;;;;11.88;6.43;;;23.60;90.40;;;;;;5078119;28;19909;-73
2021/06/20 09:58:45;;;;;;;13.95;7.25;;;23.70;89.10;;;;;;5080613;28;20249;-72
2021/06/20 10:01:14;;;;;;;14.40;6.75;;;23.70;87.40;;;;;;5080590;28;20466;-73
2021/06/20 10:03:42;;;;;;;9.60;6.35;;;23.80;87.90;;;;;;5066232;28;20492;-73
2021/06/20 10:06:10;;;;;;;11.27;7.40;;;23.80;88.60;;;;;;5084779;28;20761;-73
2021/06/20 10:08:36;;;;;;;10.27;6.25;;;23.90;87.80;;;;;;5081771;28;20028;-73
2021/06/20 10:11:02;;;;;;;11.20;6.32;;;24.00;88.40;;;;;;5066916;28;20033;-73
2021/06/20 10:13:28;;;;;;;15.02;6.38;;;24.10;88.00;;;;;;5084250;28;20036;-74
2021/06/20 10:15:57;;;;;;;11.85;6.60;;;24.20;88.50;;;;;;5083606;28;20036;-73
2021/06/20 10:18:23;;;;;;;8.00;6.47;;;24.30;86.40;;;;;;5080636;28;20025;-73
2021/06/20 10:20:56;;;;;;;11.75;6.88;;;24.30;86.90;;;;;;5083792;28;20032;-73
2021/06/20 10:23:24;;;;;;;7.38;6.18;;;24.30;86.80;;;;;;5084196;28;20027;-73
2021/06/20 10:25:51;;;;;;;8.93;6.00;;;24.30;86.90;;;;;;5065437;28;20074;-73
2021/06/20 10:28:22;;;;;;;8.77;6.28;;;24.30;86.70;;;;;;5082037;28;20028;-73
2021/06/20 10:30:49;;;;;;;8.45;5.65;;;24.30;86.60;;;;;;5083246;28;20032;-73
2021/06/20 10:33:18;;;;;;;7.68;5.93;;;24.30;87.10;;;;;;5080186;28;20043;-73
2021/06/20 10:35:57;;;;;;;7.32;5.95;;;24.40;85.20;;;;;;5083249;28;20456;-74
2021/06/20 10:38:52;;;;;;;7.22;5.88;;;24.40;85.80;;;;;;5084325;28;20164;-73
2021/06/20 10:41:30;;;;;;;6.88;5.80;;;24.60;85.50;;;;;;5065340;28;20040;-73
2021/06/20 10:44:01;;;;;;;6.88;5.90;;;24.70;85.40;;;;;;5063906;28;20065;-73
2021/06/20 10:46:28;;;;;;;8.77;6.72;;;24.70;85.20;;;;;;5081509;28;20032;-73
2021/06/20 10:48:54;;;;;;;11.18;6.13;;;24.80;84.50;;;;;;5080042;28;20445;-73
2021/06/20 10:51:23;;;;;;;9.05;6.20;;;24.90;83.00;;;;;;5079073;28;20032;-73
2021/06/20 10:53:49;;;;;;;10.70;6.18;;;24.90;84.20;;;;;;5077317;28;20024;-73
2021/06/20 10:56:25;;;;;;;10.40;6.07;;;25.00;82.90;;;;;;5082761;28;20551;-73
2021/06/20 10:58:53;;;;;;;9.07;5.85;;;25.00;81.40;;;;;;5080600;28;20039;-73
2021/06/20 11:01:21;;;;;;;9.07;5.78;;;25.00;80.70;;;;;;5078357;28;20086;-73
2021/06/20 11:03:47;;;;;;;8.80;6.28;;;25.10;81.30;;;;;;5067950;28;20431;-73
2021/06/20 11:06:15;;;;;;;6.78;5.97;;;25.10;81.40;;;;;;5080486;28;20205;-73
2021/06/20 11:08:57;;;;;;;11.85;6.78;;;25.30;80.20;;;;;;5082425;28;20071;-73
2021/06/20 11:11:24;;;;;;;8.40;5.78;;;25.30;79.30;;;;;;5082584;28;20422;-73
2021/06/20 11:13:56;;;;;;;9.07;6.78;;;25.40;79.70;;;;;;5082641;28;20036;-73
2021/06/20 11:16:39;;;;;;;6.85;5.72;;;25.50;79.40;;;;;;5082338;28;20036;-73
2021/06/20 11:19:08;;;;;;;6.70;5.82;;;25.60;78.40;;;;;;5078369;28;20028;-73
2021/06/20 11:21:56;;;;;;;9.40;7.43;;;25.60;78.90;;;;;;5075081;28;20028;-73
2021/06/20 11:24:30;;;;;;;7.10;5.70;;;25.60;77.70;;;;;;5081439;28;20043;-73
2021/06/20 11:27:06;;;;;;;7.93;5.57;;;25.60;78.80;;;;;;5072778;28;20026;-72
2021/06/20 11:29:45;;;;;;;6.18;5.57;;;25.70;79.40;;;;;;5075458;28;20036;-73
2021/06/20 11:32:21;;;;;;;14.13;6.72;;;25.80;77.30;;;;;;5069688;28;20033;-73
2021/06/20 11:34:49;;;;;;;13.95;8.40;;;25.90;76.40;;;;;;5075688;28;20030;-72
2021/06/20 11:37:24;;;;;;;11.10;7.15;;;26.10;76.30;;;;;;5074678;28;20032;-73
2021/06/20 11:39:55;;;;;;;13.02;7.13;;;26.40;77.50;;;;;;5071636;28;20024;-73
2021/06/20 11:42:30;;;;;;;8.88;6.35;;;27.00;71.80;;;;;;5079139;28;20024;-74
2021/06/20 11:45:05;;;;;;;7.93;5.47;;;27.40;71.00;;;;;;5079288;28;20033;-73
2021/06/20 11:47:32;;;;;;;5.38;4.88;;;27.80;71.80;;;;;;5078293;28;20027;-74
2021/06/20 11:50:10;;;;;;;6.45;4.90;;;28.30;69.70;;;;;;5076925;28;89379;-72
2021/06/20 11:52:36;;;;;;;7.97;5.05;;;29.70;65.00;;;;;;5065586;28;20598;-75
2021/06/20 11:55:32;;;;;;;7.35;4.80;;;30.70;61.40;;;;;;5075327;28;20686;-73
2021/06/20 11:58:03;;;;;;;6.15;5.05;;;31.70;59.30;;;;;;5079236;28;20076;-71
2021/06/20 12:00:30;;;;;;;10.80;4.40;;;32.10;57.80;;;;;;5079419;28;20036;-74
2021/06/20 12:03:19;;;;;;;7.85;4.47;;;31.40;58.10;;;;;;5081795;28;20031;-73
2021/06/20 12:05:59;;;;;;;5.90;4.25;;;31.00;55.40;;;;;;5064038;28;20024;-74
2021/06/20 12:08:26;;;;;;;6.22;4.90;;;30.70;58.80;;;;;;5080868;28;20039;-73
2021/06/20 12:10:52;;;;;;;4.90;4.45;;;30.60;59.80;;;;;;5059724;28;20390;-74
2021/06/20 12:13:18;;;;;;;6.18;4.47;;;30.60;59.50;;;;;;5075950;28;20086;-72
2021/06/20 12:15:45;;;;;;;6.10;4.57;;;30.30;59.60;;;;;;5076851;28;20029;-72
2021/06/20 12:18:13;;;;;;;6.13;4.68;;;29.90;56.90;;;;;;5061750;28;20056;-74
2021/06/20 12:20:44;;;;;;;6.00;4.68;;;29.30;60.10;;;;;;5077969;28;20404;-76
2021/06/20 12:23:23;;;;;;;6.75;4.80;;;28.70;62.30;;;;;;5072361;28;20036;-74
2021/06/20 12:25:49;;;;;;;6.90;4.15;;;28.20;61.00;;;;;;5076356;28;20046;-72
2021/06/20 12:28:17;;;;;;;6.95;4.50;;;28.00;64.10;;;;;;5077792;28;20482;-73
2021/06/20 12:30:44;;;;;;;6.25;4.22;;;27.80;65.50;;;;;;5076380;28;20074;-74
2021/06/20 12:33:15;;;;;;;7.30;4.47;;;27.70;67.10;;;;;;5079017;28;20111;-72
2021/06/20 12:35:45;;;;;;;5.93;5.03;;;27.40;66.90;;;;;;5077094;28;20024;-72
2021/06/20 12:38:19;;;;;;;8.18;4.38;;;27.20;68.30;;;;;;5077436;28;20028;-71
2021/06/20 12:40:46;;;;;;;4.45;3.85;;;26.90;67.90;;;;;;5080794;28;20036;-70
2021/06/20 12:43:17;;;;;;;5.15;4.40;;;26.70;68.00;;;;;;5076526;28;20438;-72
2021/06/20 12:45:44;;;;;;;14.05;5.10;;;26.60;69.20;;;;;;5080807;28;20082;-71